Time;durP1;ratioP1;P1;durP2;ratioP2;P2;SDS_P1;SDS_P2;PMS_P1;PMS_P2;Temp;Humidity;BMP_temperature;BMP_pressure;BME280_temperature;BME280_humidity;BME280_pressure;Samples;Min_cycle;Max_cycle;Signal;HPM_P1;HPM_P2
2023/06/30 02:58:52;;;;;;;10.20;2.90;;;;;;;12.34;100.00;101331.97;5118958;27;20062;-86
2023/06/30 05:03:02;;;;;;;14.40;4.43;;;;;;;12.25;100.00;101313.19;5114863;28;20042;-86
2023/06/30 05:05:27;;;;;;;10.10;4.40;;;;;;;12.31;100.00;101313.34;5095757;28;20066;-91
2023/06/30 05:07:53;;;;;;;10.30;4.53;;;;;;;12.41;100.00;101320.00;5112617;28;20104;-94
2023/06/30 05:10:18;;;;;;;10.75;3.67;;;;;;;12.55;100.00;101303.59;5115241;28;20092;-93
2023/06/30 05:12:44;;;;;;;7.33;4.10;;;;;;;12.68;100.00;101319.03;5115694;28;20046;-93
2023/06/30 05:15:12;;;;;;;9.03;4.13;;;;;;;12.74;100.00;101310.84;5114996;28;20031;-93
2023/06/30 05:17:37;;;;;;;10.15;4.35;;;;;;;12.85;100.00;101311.22;5093541;28;20024;-94
2023/06/30 05:20:07;;;;;;;8.73;4.03;;;;;;;12.97;100.00;101309.44;5096016;28;20071;-92
2023/06/30 05:22:33;;;;;;;7.35;3.70;;;;;;;13.01;100.00;101309.81;5081341;28;20028;-96
2023/06/30 05:24:58;;;;;;;9.30;3.67;;;;;;;13.14;100.00;101310.56;5078991;28;20039;-96
2023/06/30 05:27:24;;;;;;;7.07;3.87;;;;;;;13.21;100.00;101310.50;5096426;28;20047;-95
2023/06/30 05:29:49;;;;;;;10.90;4.07;;;;;;;13.23;100.00;101308.41;5094029;28;20498;-94
2023/06/30 05:32:14;;;;;;;11.43;3.90;;;;;;;13.29;100.00;101312.16;5114950;28;20501;-94
2023/06/30 05:34:41;;;;;;;9.67;4.00;;;;;;;13.37;100.00;101317.34;5079795;28;20392;-94
2023/06/30 05:37:07;;;;;;;11.53;4.13;;;;;;;13.38;100.00;101307.28;5130855;27;20093;-96
2023/06/30 05:39:32;;;;;;;10.27;4.13;;;;;;;13.43;100.00;101312.88;5115186;28;20036;-96
2023/06/30 05:41:58;;;;;;;16.43;4.50;;;;;;;13.47;100.00;101311.38;5116023;28;20111;-96
2023/06/30 05:44:23;;;;;;;12.53;4.27;;;;;;;13.48;100.00;101313.91;5095517;28;20452;-95
2023/06/30 05:46:48;;;;;;;8.77;3.80;;;;;;;13.56;100.00;101314.69;5112860;28;20036;-96
2023/06/30 05:49:14;;;;;;;8.87;4.00;;;;;;;13.58;100.00;101310.66;5060764;28;20043;-96
2023/06/30 05:51:42;;;;;;;10.50;4.00;;;;;;;13.63;100.00;101312.72;5113169;28;20028;-87
2023/06/30 05:54:10;;;;;;;12.03;3.77;;;;;;;13.68;100.00;101312.88;5090015;28;20063;-96
2023/06/30 05:56:36;;;;;;;8.55;3.88;;;;;;;13.72;100.00;101314.09;5115351;28;20027;-93
2023/06/30 05:59:02;;;;;;;13.30;3.85;;;;;;;13.77;100.00;101316.97;5114438;28;20119;-95
2023/06/30 06:01:27;;;;;;;10.10;4.22;;;;;;;13.80;100.00;101308.34;5148644;27;20544;-95
2023/06/30 06:03:52;;;;;;;5.20;3.10;;;;;;;13.88;100.00;101317.28;5115043;28;20486;-95
2023/06/30 06:06:18;;;;;;;9.30;3.47;;;;;;;13.93;100.00;101304.63;5115407;28;20036;-96
2023/06/30 06:08:48;;;;;;;9.37;3.57;;;;;;;13.98;100.00;101307.53;5116647;28;20039;-96
2023/06/30 06:11:14;;;;;;;9.15;3.92;;;;;;;14.04;100.00;101312.06;5116337;28;20471;-96
2023/06/30 06:13:40;;;;;;;8.82;3.58;;;;;;;14.06;100.00;101298.19;5116145;28;20046;-96
2023/06/30 06:16:08;;;;;;;6.85;3.22;;;;;;;14.18;100.00;101307.28;5117691;28;20027;-96
2023/06/30 06:18:36;;;;;;;9.50;3.40;;;;;;;14.20;99.51;101301.59;5119831;28;20085;-96
2023/06/30 06:21:05;;;;;;;8.38;3.13;;;;;;;14.27;98.47;101301.53;5117924;28;20487;-96
2023/06/30 06:23:31;;;;;;;11.65;3.08;;;;;;;14.36;98.05;101309.19;5117549;28;20016;-96
2023/06/30 06:25:56;;;;;;;9.40;2.90;;;;;;;14.49;96.96;101323.72;5121445;28;20043;-96
2023/06/30 06:28:21;;;;;;;6.93;2.90;;;;;;;14.45;96.12;101315.13;5119320;28;20265;-96
2023/06/30 06:30:48;;;;;;;7.57;3.33;;;;;;;14.59;96.82;101323.19;5120895;28;20448;-96
2023/06/30 06:33:14;;;;;;;10.00;2.78;;;;;;;14.66;95.27;101319.31;5118637;28;20034;-95
2023/06/30 06:35:39;;;;;;;8.27;2.97;;;;;;;14.70;94.98;101322.41;5100801;28;20028;-95
2023/06/30 06:38:08;;;;;;;5.77;2.83;;;;;;;14.79;95.09;101325.66;5119001;28;20068;-95
2023/06/30 06:40:33;;;;;;;9.05;3.05;;;;;;;14.83;94.33;101329.59;5119153;28;20535;-96
2023/06/30 06:42:59;;;;;;;8.43;2.70;;;;;;;14.85;93.56;101328.31;5120785;28;20035;-96
2023/06/30 06:45:25;;;;;;;11.82;2.42;;;;;;;14.95;94.12;101315.97;5153480;27;20046;-96
2023/06/30 06:48:22;;;;;;;6.95;2.70;;;;;;;15.08;92.40;101334.88;5128775;28;20502;-96
2023/06/30 06:50:59;;;;;;;4.30;1.93;;;;;;;15.14;89.77;101331.22;5125807;28;20016;-94
2023/06/30 06:53:33;;;;;;;4.25;1.90;;;;;;;15.21;88.38;101323.75;5142619;27;20066;-96
2023/06/30 06:56:04;;;;;;;4.10;1.77;;;;;;;15.31;88.23;101317.72;5138151;27;20023;-96
2023/06/30 06:58:32;;;;;;;6.70;2.10;;;;;;;15.41;88.08;101315.22;5157000;27;20034;-96
2023/06/30 07:00:58;;;;;;;7.57;2.03;;;;;;;15.44;84.88;101312.03;5152432;27;20007;-96
2023/06/30 07:03:26;;;;;;;3.37;1.70;;;;;;;15.49;82.31;101316.78;5155791;27;20027;-96
2023/06/30 07:05:53;;;;;;;3.70;1.27;;;;;;;15.56;81.69;101327.59;5172630;27;20031;-96
2023/06/30 07:08:19;;;;;;;4.43;1.90;;;;;;;15.62;83.78;101329.41;5153987;27;20019;-96
2023/06/30 07:10:50;;;;;;;5.63;1.80;;;;;;;15.67;82.28;101321.28;5156872;27;20060;-96
2023/06/30 07:13:34;;;;;;;5.60;1.65;;;;;;;15.67;83.26;101315.00;5171134;27;20027;-96
2023/06/30 07:16:02;;;;;;;10.55;1.75;;;;;;;15.78;82.52;101322.38;5150331;27;20043;-96
2023/06/30 07:18:40;;;;;;;5.05;1.70;;;;;;;15.79;83.40;101318.59;5174120;27;20038;-96
2023/06/30 07:21:14;;;;;;;5.50;1.38;;;;;;;15.90;79.70;101323.22;5137773;27;20031;-96
2023/06/30 07:23:42;;;;;;;5.97;1.60;;;;;;;15.94;79.71;101320.84;5137553;27;20028;-96
2023/06/30 07:26:15;;;;;;;2.72;1.30;;;;;;;15.98;78.87;101311.06;5158577;27;20023;-96
2023/06/30 07:28:47;;;;;;;3.58;1.38;;;;;;;16.09;74.93;101321.19;5158722;27;20007;-96
2023/06/30 07:31:12;;;;;;;3.97;1.20;;;;;;;16.10;75.64;101314.63;5139301;27;20095;-96
2023/06/30 07:37:03;;;;;;;4.97;1.33;;;;;;;16.27;71.40;101322.09;5157599;27;20031;-96
2023/06/30 07:39:31;;;;;;;3.65;1.23;;;;;;;16.38;71.60;101320.41;5153604;27;20055;-96
2023/06/30 07:42:03;;;;;;;2.58;0.98;;;;;;;16.56;71.39;101324.84;5155893;27;20007;-96
2023/06/30 07:44:29;;;;;;;4.03;1.50;;;;;;;16.63;69.30;101328.28;5141261;27;20514;-96
2023/06/30 07:47:05;;;;;;;;;;;;;;;;;;;;;
2023/06/30 07:49:33;;;;;;;4.32;1.40;;;;;;;16.76;69.31;101322.50;5151482;27;20063;-96
2023/06/30 07:52:01;;;;;;;2.13;1.13;;;;;;;16.88;67.46;101321.66;5133916;27;20124;-96
2023/06/30 07:54:31;;;;;;;4.55;1.13;;;;;;;16.95;65.31;101314.94;5133481;27;20488;-96
2023/06/30 07:56:56;;;;;;;3.40;1.30;;;;;;;17.02;64.87;101317.50;5171102;27;20122;-96
2023/06/30 07:59:22;;;;;;;4.57;1.10;;;;;;;17.15;64.85;101319.13;5186633;22;20066;-96
2023/06/30 08:01:50;;;;;;;7.93;1.20;;;;;;;17.28;64.35;101327.00;5116733;28;20027;-96
2023/06/30 08:04:21;;;;;;;4.97;1.60;;;;;;;17.31;63.80;101310.06;5113439;23;20052;-96
2023/06/30 08:06:47;;;;;;;5.40;1.20;;;;;;;17.51;65.48;101326.03;5111730;28;20034;-96
2023/06/30 08:09:17;;;;;;;2.35;1.30;;;;;;;17.61;65.16;101308.03;5092225;28;20491;-96
2023/06/30 08:11:48;;;;;;;5.35;1.60;;;;;;;17.75;64.82;101316.78;5117757;28;20079;-96
2023/06/30 08:14:26;;;;;;;3.53;1.43;;;;;;;17.86;65.19;101318.56;5092073;28;20028;-96
2023/06/30 08:16:52;;;;;;;7.53;1.70;;;;;;;17.98;61.46;101316.59;5078147;28;20036;-96
2023/06/30 08:19:23;;;;;;;4.60;1.52;;;;;;;18.04;61.35;101311.97;5093385;28;20043;-96
2023/06/30 08:21:48;;;;;;;6.73;1.60;;;;;;;18.28;60.58;101325.44;5104346;28;20035;-87
2023/06/30 08:24:16;;;;;;;6.68;1.40;;;;;;;18.32;58.78;101313.72;5063906;28;20404;-96
2023/06/30 08:26:44;;;;;;;4.57;1.40;;;;;;;18.56;60.00;101321.69;5097281;28;20047;-96
2023/06/30 08:29:13;;;;;;;4.85;1.30;;;;;;;18.64;60.15;101307.47;5116800;28;20039;-96
2023/06/30 08:34:23;;;;;;;6.85;1.55;;;;;;;19.09;59.53;101322.00;5581260;22;19919;31
2023/06/30 08:39:37;;;;;;;4.57;1.47;;;;;;;19.23;57.06;101309.44;5249446;22;20064;-96
2023/06/30 08:42:09;;;;;;;6.85;1.75;;;;;;;19.28;56.26;101295.75;5059437;28;20048;-93
2023/06/30 08:44:39;;;;;;;5.97;1.88;;;;;;;19.52;56.54;101303.63;5676814;23;20044;-96
2023/06/30 08:52:45;;;;;;;3.90;1.50;;;;;;;20.28;53.81;101296.06;5769124;22;20640;-96
2023/06/30 08:57:49;;;;;;;3.63;1.40;;;;;;;20.60;51.68;101284.03;5766420;23;20498;-96
2023/06/30 09:02:55;;;;;;;3.63;1.20;;;;;;;20.80;51.26;101272.22;6039595;23;20854;-94
2023/06/30 09:13:32;;;;;;;4.18;1.70;;;;;;;21.47;49.17;101270.28;5332784;23;20062;-96
2023/06/30 09:16:06;;;;;;;7.40;1.60;;;;;;;21.85;48.96;101269.94;5594769;23;20054;-96
2023/06/30 09:18:37;;;;;;;4.20;1.60;;;;;;;21.98;47.39;101287.84;5005751;28;20143;-96
2023/06/30 09:21:20;;;;;;;3.67;1.70;;;;;;;22.09;46.50;101272.91;4990132;28;20034;-96
2023/06/30 09:23:59;;;;;;;3.30;1.88;;;;;;;22.35;46.84;101267.25;4989759;28;20034;-96
2023/06/30 09:26:32;;;;;;;4.32;1.60;;;;;;;22.43;46.23;101270.25;4974032;28;20030;-96
2023/06/30 09:29:01;;;;;;;5.07;1.80;;;;;;;22.63;45.13;101265.72;5003569;28;20132;-96
2023/06/30 09:32:02;;;;;;;5.77;1.60;;;;;;;22.79;45.56;101277.50;5003671;28;20030;-96
2023/06/30 09:34:33;;;;;;;6.38;1.60;;;;;;;22.84;45.67;101271.94;5004587;28;20034;-96
2023/06/30 09:37:09;;;;;;;5.43;1.67;;;;;;;22.85;43.96;101264.47;5005803;28;20068;-96
2023/06/30 09:39:37;;;;;;;5.20;1.30;;;;;;;23.10;43.01;101269.84;5003251;28;20481;-96
2023/06/30 09:42:30;;;;;;;4.30;1.55;;;;;;;23.26;44.16;101261.38;5001029;28;20371;-96
2023/06/30 09:45:45;;;;;;;7.03;1.60;;;;;;;23.71;45.31;101261.19;5018714;28;20042;-96
2023/06/30 09:50:59;;;;;;;5.90;1.80;;;;;;;23.42;40.95;101262.06;4342993;23;20061;-96
2023/06/30 09:53:34;;;;;;;4.70;1.80;;;;;;;23.20;41.81;101259.78;5003256;28;20093;-96
2023/06/30 09:56:00;;;;;;;4.97;1.63;;;;;;;23.27;41.85;101254.75;5055275;23;20109;-96
2023/06/30 09:58:25;;;;;;;5.20;1.60;;;;;;;23.29;41.91;101256.06;5014474;28;20053;-96
2023/06/30 10:00:51;;;;;;;4.03;1.30;;;;;;;23.56;41.71;101264.97;5014360;28;20061;-94
2023/06/30 10:03:18;;;;;;;7.47;1.83;;;;;;;23.52;40.73;101259.19;5004391;28;20454;-96
2023/06/30 10:05:44;;;;;;;3.22;1.65;;;;;;;23.48;40.10;101260.88;5079616;23;20054;-96
2023/06/30 10:08:12;;;;;;;6.90;1.70;;;;;;;23.73;40.87;101262.56;4999004;28;20122;-95
2023/06/30 10:10:45;;;;;;;3.60;1.70;;;;;;;23.86;39.91;101251.91;5003540;28;20120;-96
2023/06/30 10:13:12;;;;;;;4.45;1.88;;;;;;;23.61;39.47;101259.38;5003487;28;20053;-96
2023/06/30 10:15:38;;;;;;;2.58;1.35;;;;;;;23.73;40.13;101254.25;5000160;28;20023;-96
2023/06/30 10:18:06;;;;;;;3.65;1.42;;;;;;;23.82;39.32;101251.66;4998754;28;20049;-96
2023/06/30 10:20:32;;;;;;;4.63;1.70;;;;;;;24.08;38.23;101248.59;4997611;28;20030;-96
2023/06/30 10:23:01;;;;;;;5.77;1.40;;;;;;;24.24;38.65;101250.06;4980670;28;20456;-95
2023/06/30 10:25:29;;;;;;;3.70;1.70;;;;;;;23.89;38.79;101252.16;4981728;28;20079;-96
2023/06/30 10:27:55;;;;;;;4.70;2.00;;;;;;;23.43;39.14;101247.09;4997825;28;20144;-96
2023/06/30 10:30:21;;;;;;;4.03;1.98;;;;;;;23.03;40.08;101246.31;4997097;28;20038;-96
2023/06/30 10:32:47;;;;;;;4.53;1.75;;;;;;;22.68;41.02;101242.75;4981177;28;20049;-96
2023/06/30 10:35:14;;;;;;;2.93;1.43;;;;;;;22.99;40.16;101251.63;4997183;28;20097;-96
2023/06/30 10:37:40;;;;;;;4.57;1.42;;;;;;;23.88;39.33;101244.94;4998307;28;20065;-96
2023/06/30 10:40:26;;;;;;;4.03;1.60;;;;;;;24.12;39.21;101239.41;4996814;28;20113;-96
2023/06/30 10:42:54;;;;;;;3.67;1.50;;;;;;;24.25;37.74;101246.13;4998036;28;20023;-96
2023/06/30 10:45:22;;;;;;;6.03;1.47;;;;;;;24.60;37.54;101241.22;5001717;28;20028;-96
2023/06/30 10:47:50;;;;;;;2.15;1.58;;;;;;;25.01;36.78;101235.03;4996813;28;20039;-95
2023/06/30 10:50:16;;;;;;;3.60;1.80;;;;;;;25.15;36.03;101223.13;4998250;28;20030;-94
2023/06/30 10:52:53;;;;;;;5.78;1.52;;;;;;;24.96;36.67;101218.44;4996418;28;20045;-95
2023/06/30 10:55:26;;;;;;;6.10;1.47;;;;;;;25.22;37.65;101224.38;4998595;28;20121;-95
2023/06/30 10:57:53;;;;;;;5.35;1.60;;;;;;;25.44;36.44;101224.84;4996828;28;20022;-95
2023/06/30 11:00:26;;;;;;;6.72;1.80;;;;;;;25.31;36.43;101226.47;4980711;28;20109;-93
2023/06/30 11:02:59;;;;;;;5.90;1.80;;;;;;;25.13;36.73;101220.66;4997474;28;20026;-89
2023/06/30 11:05:35;;;;;;;5.32;2.05;;;;;;;25.43;36.36;101224.00;4976852;28;20082;-93
2023/06/30 11:08:09;;;;;;;5.40;1.90;;;;;;;25.01;36.45;101223.91;4977390;28;20030;-94
2023/06/30 11:10:46;;;;;;;5.03;1.95;;;;;;;24.50;37.12;101200.56;4976365;28;20023;-94
2023/06/30 11:13:15;;;;;;;5.82;2.10;;;;;;;24.17;36.75;101205.25;4993771;28;20054;-95
2023/06/30 11:15:43;;;;;;;4.25;1.70;;;;;;;24.34;37.70;101211.09;4978581;28;20042;-96
2023/06/30 11:18:41;;;;;;;4.38;1.70;;;;;;;24.40;38.01;101217.38;4976834;28;20045;-96
2023/06/30 11:21:07;;;;;;;3.97;1.67;;;;;;;24.45;37.81;101210.94;4977404;28;20046;-96
2023/06/30 11:23:41;;;;;;;4.85;2.03;;;;;;;25.26;36.62;101205.16;4977545;28;20033;-96
2023/06/30 11:26:15;;;;;;;3.30;1.90;;;;;;;26.48;35.13;101207.66;4978162;28;20038;-96
2023/06/30 11:28:41;;;;;;;4.55;2.10;;;;;;;27.18;33.79;101216.50;4992649;28;20026;-96
2023/06/30 11:31:07;;;;;;;5.53;2.45;;;;;;;28.60;30.88;101200.66;4976821;28;20501;-89
2023/06/30 11:33:38;;;;;;;5.60;1.90;;;;;;;29.71;29.65;101211.00;4976504;28;20035;-86
2023/06/30 11:36:07;;;;;;;3.55;2.63;;;;;;;30.98;27.58;101201.84;4975808;28;20058;-86
2023/06/30 11:38:40;;;;;;;8.05;2.83;;;;;;;31.90;27.11;101197.69;4992101;28;20538;-87
2023/06/30 11:52:15;;;;;;;5.55;3.63;;;;;;;38.06;21.94;101180.03;4976413;28;20035;-87
2023/06/30 11:58:08;;;;;;;6.77;3.13;;;;;;;35.06;22.19;101174.97;4977726;28;20201;-96
2023/06/30 12:00:34;;;;;;;6.88;3.60;;;;;;;34.44;22.28;101161.72;4977508;28;20031;-87
2023/06/30 12:02:59;;;;;;;7.83;3.30;;;;;;;32.29;24.33;101175.66;4958646;28;20041;-87
2023/06/30 12:41:49;;;;;;;7.05;4.00;;;;;;;32.19;25.40;101142.50;4988881;28;20065;-86
2023/06/30 12:44:47;;;;;;;7.38;4.50;;;;;;;32.46;26.04;101126.00;4977740;28;20054;-89
2023/06/30 12:47:12;;;;;;;6.80;3.83;;;;;;;32.68;24.12;101122.63;4955584;29;20550;-88
2023/06/30 20:59:28;;;;;;;5.45;1.48;;;;;;;18.63;52.06;100829.59;4994999;28;20513;-87
2023/06/30 21:01:53;;;;;;;4.60;1.20;;;;;;;18.61;51.09;100821.63;4995067;28;20145;-86
2023/06/30 21:04:19;;;;;;;6.03;1.77;;;;;;;18.59;50.84;100819.16;4995139;28;20113;-86
2023/06/30 21:06:44;;;;;;;3.87;1.40;;;;;;;18.59;49.72;100808.16;4962285;28;20049;-86
2023/06/30 21:09:49;;;;;;;6.03;1.53;;;;;;;18.59;49.68;100805.41;4978372;28;20506;-86
2023/06/30 21:12:20;;;;;;;3.47;1.70;;;;;;;18.58;48.72;100805.69;4977941;28;20546;-84
2023/06/30 21:14:46;;;;;;;2.72;1.58;;;;;;;18.57;48.99;100809.53;4994964;28;20066;-84
2023/06/30 21:17:11;;;;;;;4.70;1.87;;;;;;;18.55;49.36;100807.03;4961372;28;20069;-84
2023/06/30 21:19:36;;;;;;;4.70;1.77;;;;;;;18.55;49.36;100801.53;4978128;28;20475;-84
2023/06/30 21:22:02;;;;;;;4.23;1.80;;;;;;;18.54;48.86;100793.56;4977640;28;20129;-84
2023/06/30 21:24:33;;;;;;;5.13;1.77;;;;;;;18.51;49.03;100791.38;4993098;28;20848;-85
2023/06/30 21:27:10;;;;;;;2.90;1.50;;;;;;;18.43;48.81;100778.19;4993819;28;20085;-86
2023/06/30 21:29:38;;;;;;;4.72;1.60;;;;;;;18.43;48.94;100775.44;4977431;28;20038;-87
2023/06/30 21:32:05;;;;;;;6.38;1.92;;;;;;;18.44;49.06;100783.41;4993653;28;20133;-87
2023/06/30 21:34:31;;;;;;;7.63;2.10;;;;;;;18.42;49.27;100782.81;4976965;28;20033;-87
2023/06/30 21:36:56;;;;;;;4.32;1.60;;;;;;;18.41;49.43;100779.25;4994863;28;20394;-87
2023/06/30 21:39:24;;;;;;;4.50;1.53;;;;;;;18.37;49.62;100769.09;4945292;28;20026;-87
2023/06/30 21:41:52;;;;;;;5.45;2.00;;;;;;;18.33;50.07;100760.56;4993179;28;20076;-87
2023/06/30 21:44:17;;;;;;;4.90;1.80;;;;;;;18.40;49.95;100774.03;4994468;28;20037;-87
2023/06/30 21:46:43;;;;;;;4.90;1.80;;;;;;;18.31;50.10;100754.50;4961051;28;20034;-87
2023/06/30 21:49:08;;;;;;;3.83;1.70;;;;;;;18.40;50.36;100766.63;4993168;28;20034;-87
2023/06/30 21:51:33;;;;;;;3.20;1.70;;;;;;;18.33;50.41;100763.28;4994646;28;20427;-87
2023/06/30 21:54:04;;;;;;;7.37;2.07;;;;;;;18.34;50.48;100761.41;4994385;28;20484;-87
2023/06/30 21:56:29;;;;;;;5.32;1.92;;;;;;;18.30;50.83;100750.09;4976514;28;20054;-87
2023/06/30 21:58:55;;;;;;;5.57;2.20;;;;;;;18.33;51.48;100756.97;4994122;28;20042;-87
2023/06/30 22:01:23;;;;;;;5.90;1.70;;;;;;;18.26;51.14;100742.69;4977058;28;20045;-87
2023/06/30 22:03:48;;;;;;;5.55;2.00;;;;;;;18.28;51.29;100737.72;4976849;28;20056;-86
2023/06/30 22:06:16;;;;;;;3.97;1.73;;;;;;;18.22;51.48;100734.97;4993048;28;20530;-87
2023/06/30 22:08:41;;;;;;;5.07;1.75;;;;;;;18.26;52.52;100742.69;4976427;28;20030;-87
2023/06/30 22:11:09;;;;;;;2.57;1.50;;;;;;;18.19;51.59;100731.97;4960762;28;20521;-87
2023/06/30 22:13:36;;;;;;;4.57;1.50;;;;;;;18.24;52.17;100737.47;4993816;28;20022;-87
2023/06/30 22:16:02;;;;;;;4.22;1.63;;;;;;;18.13;51.73;100728.38;4977029;28;20497;-87
2023/06/30 22:18:35;;;;;;;3.83;1.60;;;;;;;18.10;52.28;100719.81;4993921;28;20113;-87
2023/06/30 22:21:03;;;;;;;6.78;1.88;;;;;;;18.15;51.76;100717.94;4977246;28;20136;-87
2023/06/30 22:23:31;;;;;;;3.17;1.75;;;;;;;18.13;51.84;100720.13;4994303;28;20026;-87
2023/06/30 22:25:56;;;;;;;5.93;1.70;;;;;;;18.03;51.82;100711.84;4960597;28;20038;-87
2023/06/30 22:28:22;;;;;;;4.28;1.80;;;;;;;18.01;51.84;100695.66;4976663;28;20031;-88
2023/06/30 22:30:47;;;;;;;4.77;1.53;;;;;;;18.03;52.04;100709.94;4976478;28;20044;-87
2023/06/30 22:33:13;;;;;;;7.30;1.77;;;;;;;17.98;52.31;100689.88;4976636;28;20022;-87
2023/06/30 22:35:41;;;;;;;9.23;1.90;;;;;;;18.02;52.21;100697.28;4992951;28;20037;-87
2023/06/30 22:38:14;;;;;;;3.40;1.80;;;;;;;18.02;52.46;100699.22;4993917;28;20289;-87
2023/06/30 22:40:39;;;;;;;6.78;2.33;;;;;;;18.00;52.25;100695.94;4976865;28;20129;-87
2023/06/30 22:43:04;;;;;;;7.60;1.70;;;;;;;17.94;52.72;100694.22;4992572;28;20053;-87
2023/06/30 22:45:30;;;;;;;6.90;2.10;;;;;;;17.91;52.55;100681.91;4992865;28;20030;-87
2023/06/30 22:47:55;;;;;;;4.80;1.93;;;;;;;17.93;52.48;100685.19;4976180;28;20394;-85
2023/06/30 22:50:21;;;;;;;2.87;1.70;;;;;;;17.92;52.68;100689.00;4992567;28;20034;-84
2023/06/30 22:52:46;;;;;;;9.00;1.80;;;;;;;17.91;52.77;100686.53;4992123;28;20030;-89
2023/06/30 22:55:12;;;;;;;5.63;1.83;;;;;;;17.92;53.09;100683.53;4976094;28;20073;-86
2023/06/30 22:57:40;;;;;;;3.03;1.47;;;;;;;17.91;53.15;100687.38;4992566;28;20045;-87
2023/06/30 23:00:16;;;;;;;3.13;1.75;;;;;;;17.86;53.25;100679.09;4992390;28;20112;-88
2023/06/30 23:02:43;;;;;;;5.43;1.60;;;;;;;17.86;53.14;100674.44;4992722;28;20486;-88
2023/06/30 23:05:12;;;;;;;4.33;1.87;;;;;;;17.88;53.29;100685.16;4992504;28;20033;-86
2023/06/30 23:07:37;;;;;;;5.88;1.70;;;;;;;17.82;53.51;100673.31;4975913;28;20486;-87
2023/06/30 23:10:03;;;;;;;3.23;1.57;;;;;;;17.82;53.62;100675.22;4995583;28;20034;-87
2023/06/30 23:12:38;;;;;;;10.07;1.70;;;;;;;17.81;53.44;100674.41;4997172;28;20062;-87
2023/06/30 23:18:36;;;;;;;4.47;2.10;;;;;;;17.79;53.89;100662.88;4997237;28;20092;-87
2023/06/30 23:24:23;;;;;;;5.70;1.80;;;;;;;17.81;53.72;100665.34;4996864;28;20116;-87
2023/06/30 23:26:49;;;;;;;3.90;1.83;;;;;;;17.78;53.78;100657.66;4979498;28;20121;-87
2023/06/30 23:29:15;;;;;;;4.07;1.60;;;;;;;17.73;53.62;100639.25;4995514;28;20029;-87
2023/06/30 23:31:41;;;;;;;4.43;1.50;;;;;;;17.76;54.28;100646.13;4995549;28;20113;-87
2023/06/30 23:34:06;;;;;;;2.65;1.65;;;;;;;17.71;54.79;100638.69;4995550;28;20378;-87
2023/06/30 23:36:35;;;;;;;5.00;1.77;;;;;;;17.72;53.86;100640.34;4996542;28;20042;-87
2023/06/30 23:39:01;;;;;;;4.70;1.80;;;;;;;17.69;54.26;100633.47;4996871;28;20115;-87
2023/06/30 23:41:34;;;;;;;5.88;2.22;;;;;;;17.70;54.15;100635.13;4947425;28;20609;-87
2023/06/30 23:44:00;;;;;;;3.00;1.60;;;;;;;17.74;54.51;100634.59;4996979;28;20098;-87
2023/06/30 23:46:28;;;;;;;4.68;1.50;;;;;;;17.72;54.11;100629.38;4996569;28;20059;-87
2023/06/30 23:48:54;;;;;;;4.45;1.60;;;;;;;17.74;54.31;100637.34;4995263;28;20030;-87
2023/06/30 23:51:20;;;;;;;5.27;1.70;;;;;;;17.69;54.49;100627.97;4996272;28;20077;-87
2023/06/30 23:53:45;;;;;;;4.00;1.70;;;;;;;17.67;54.45;100621.09;4978993;28;20037;-87
2023/06/30 23:56:11;;;;;;;3.67;1.87;;;;;;;17.63;54.62;100609.88;4996256;28;20380;-87
2023/06/30 23:58:36;;;;;;;9.63;1.40;;;;;;;17.66;54.71;100625.78;4995044;28;20036;-88
